createdAt,value
2023-02-19T00:03:16.995Z,6.55
2023-02-19T00:08:20.125Z,3.90
2023-02-19T00:13:23.127Z,4.97
2023-02-19T00:18:26.166Z,5.40
2023-02-19T00:23:29.326Z,4.93
2023-02-19T00:28:32.542Z,4.32
2023-02-19T00:33:36.021Z,5.15
2023-02-19T00:38:41.000Z,6.53
2023-02-19T00:43:44.143Z,4.38
2023-02-19T00:48:47.716Z,5.07
2023-02-19T00:53:51.216Z,4.97
2023-02-19T00:58:54.428Z,6.70
2023-02-19T01:03:57.798Z,6.72
2023-02-19T01:09:01.523Z,8.48
2023-02-19T01:14:05.298Z,11.73
2023-02-19T01:19:09.115Z,11.60
2023-02-19T01:24:15.106Z,7.68
2023-02-19T01:29:18.106Z,9.93
2023-02-19T01:34:21.736Z,9.55
2023-02-19T01:39:24.710Z,10.18
2023-02-19T01:44:27.638Z,7.72
2023-02-19T01:49:36.523Z,8.55
2023-02-19T01:54:43.385Z,7.28
2023-02-19T01:59:50.386Z,8.25
2023-02-19T02:04:53.723Z,6.90
2023-02-19T02:10:15.726Z,5.78
2023-02-19T02:15:19.918Z,5.07
2023-02-19T02:20:58.954Z,8.38
2023-02-19T02:26:30.959Z,5.53
2023-02-19T02:31:47.063Z,6.45
2023-02-19T02:36:55.745Z,4.35
2023-02-19T02:42:18.964Z,4.38
2023-02-19T02:47:43.428Z,5.82
2023-02-19T02:53:10.198Z,6.25
2023-02-19T02:58:15.017Z,6.65
2023-02-19T03:03:21.558Z,7.30
2023-02-19T03:08:30.017Z,6.95
2023-02-19T03:13:56.251Z,4.45
2023-02-19T03:19:19.120Z,4.03
2023-02-19T03:24:46.254Z,4.68
2023-02-19T03:29:52.436Z,6.18
2023-02-19T03:35:14.168Z,7.38
2023-02-19T03:40:18.062Z,6.18
2023-02-19T03:45:27.274Z,6.18
2023-02-19T03:50:30.803Z,6.85
2023-02-19T03:55:40.413Z,7.28
2023-02-19T04:00:56.081Z,8.00
2023-02-19T04:06:03.579Z,6.43
2023-02-19T04:11:09.153Z,10.02
2023-02-19T04:16:23.194Z,11.18
2023-02-19T04:21:30.147Z,8.60
2023-02-19T04:26:34.756Z,13.35
2023-02-19T04:31:38.914Z,8.55
2023-02-19T04:36:41.851Z,7.80
2023-02-19T04:41:44.880Z,8.18
2023-02-19T04:46:48.075Z,6.45
2023-02-19T04:51:51.112Z,6.55
2023-02-19T04:56:54.104Z,5.95
2023-02-19T05:01:58.308Z,7.22
2023-02-19T05:07:01.349Z,7.53
2023-02-19T05:12:04.626Z,7.25
2023-02-19T05:17:07.668Z,13.50
2023-02-19T05:22:10.776Z,7.72
2023-02-19T05:27:13.816Z,8.18
2023-02-19T05:32:16.840Z,10.65
2023-02-19T05:37:19.934Z,9.88
2023-02-19T05:42:23.081Z,10.55
2023-02-19T05:47:26.114Z,9.65
2023-02-19T05:52:29.139Z,8.80
2023-02-19T05:57:32.180Z,10.70
2023-02-19T06:02:36.374Z,10.18
2023-02-19T06:07:39.937Z,11.20
2023-02-19T06:12:42.962Z,11.35
2023-02-19T06:17:45.938Z,12.52
2023-02-19T06:22:51.127Z,11.43
2023-02-19T06:27:54.328Z,15.63
2023-02-19T06:32:57.501Z,14.02
2023-02-19T06:38:00.499Z,15.68
2023-02-19T06:43:03.771Z,18.42
2023-02-19T06:48:07.034Z,18.63
2023-02-19T06:53:11.943Z,17.67
2023-02-19T06:58:14.877Z,16.40
2023-02-19T07:03:17.989Z,13.90
2023-02-19T07:08:21.092Z,18.73
2023-02-19T07:13:27.015Z,19.17
2023-02-19T07:18:30.960Z,19.02
2023-02-19T07:23:34.802Z,14.73
2023-02-19T07:28:37.848Z,15.38
2023-02-19T07:33:43.799Z,15.48
2023-02-19T07:38:46.920Z,10.38
2023-02-19T07:43:49.977Z,11.40
2023-02-19T07:48:53.114Z,12.48
2023-02-19T07:53:56.158Z,12.88
2023-02-19T07:59:00.655Z,15.65
2023-02-19T08:04:03.613Z,13.88
2023-02-19T08:09:07.080Z,10.95
2023-02-19T08:14:10.100Z,11.88
2023-02-19T08:19:13.126Z,14.73
2023-02-19T08:24:16.177Z,10.98
2023-02-19T08:29:19.260Z,13.32
2023-02-19T08:34:22.293Z,9.95
2023-02-19T08:39:25.385Z,10.93
2023-02-19T08:44:28.483Z,11.40
2023-02-19T08:49:31.538Z,10.80
2023-02-19T08:54:36.208Z,10.27
2023-02-19T08:59:40.221Z,12.57
2023-02-19T09:04:43.354Z,9.88
2023-02-19T09:09:46.390Z,11.40
2023-02-19T09:14:49.598Z,11.25
2023-02-19T09:19:52.639Z,8.10
2023-02-19T09:24:55.744Z,9.50
2023-02-19T09:29:58.943Z,10.63
2023-02-19T09:35:01.970Z,8.10
2023-02-19T09:40:06.562Z,6.40
2023-02-19T09:45:21.435Z,5.90
2023-02-19T09:50:37.677Z,6.45
2023-02-19T09:55:43.217Z,5.30
2023-02-19T10:00:49.948Z,7.63
2023-02-19T10:05:54.271Z,5.22
2023-02-19T10:10:57.270Z,9.18
2023-02-19T10:16:04.225Z,6.10
2023-02-19T10:21:07.902Z,5.40
2023-02-19T10:26:11.137Z,8.80
2023-02-19T10:31:25.766Z,4.50
2023-02-19T10:36:40.006Z,4.47
2023-02-19T10:41:44.313Z,7.10
2023-02-19T10:46:50.650Z,7.65
2023-02-19T10:51:56.218Z,4.95
2023-02-19T10:57:40.902Z,3.63
2023-02-19T11:02:45.451Z,5.43
2023-02-19T11:07:54.945Z,4.60
2023-02-19T11:13:05.159Z,6.13
2023-02-19T11:18:13.698Z,8.73
2023-02-19T11:23:31.088Z,6.13
2023-02-19T11:28:40.926Z,9.15
2023-02-19T11:34:05.497Z,6.60
2023-02-19T11:39:22.279Z,9.48
2023-02-19T11:44:47.011Z,7.72
2023-02-19T11:50:11.878Z,16.65
2023-02-19T12:00:51.587Z,7.63
2023-02-19T12:06:38.871Z,9.27
2023-02-19T12:11:53.875Z,8.02
2023-02-19T12:17:31.726Z,7.00
2023-02-19T12:22:46.349Z,7.68
2023-02-19T12:28:27.353Z,10.15
2023-02-19T12:33:48.341Z,11.30
2023-02-19T12:39:25.595Z,8.35
2023-02-19T12:49:59.687Z,10.00
2023-02-19T12:55:28.900Z,9.07
2023-02-19T13:00:39.864Z,11.25
2023-02-19T13:05:50.653Z,6.55
2023-02-19T13:11:30.628Z,9.27
2023-02-19T13:16:37.583Z,6.88
2023-02-19T13:21:59.783Z,4.70
2023-02-19T13:27:24.173Z,5.95
2023-02-19T13:32:48.613Z,6.13
2023-02-19T13:37:53.845Z,9.00
2023-02-19T13:43:00.116Z,6.47
2023-02-19T13:48:26.845Z,11.32
2023-02-19T13:53:52.084Z,6.95
2023-02-19T14:04:23.738Z,11.57
2023-02-19T14:09:41.552Z,9.02
2023-02-19T14:14:57.724Z,7.22
2023-02-19T14:20:44.568Z,9.95
2023-02-19T14:26:00.035Z,5.38
2023-02-19T14:31:25.165Z,5.55
2023-02-19T14:41:34.359Z,5.82
2023-02-19T14:46:45.671Z,11.45
2023-02-19T14:51:53.262Z,7.90
2023-02-19T14:56:57.609Z,13.55
2023-02-19T15:02:14.852Z,8.23
2023-02-19T15:07:24.962Z,5.93
2023-02-19T15:12:34.965Z,8.00
2023-02-19T15:17:41.911Z,7.50
2023-02-19T15:22:46.560Z,7.90
2023-02-19T15:27:50.499Z,13.25
2023-02-19T15:32:55.989Z,7.70
2023-02-19T15:37:59.141Z,6.57
2023-02-19T15:43:02.300Z,8.75
2023-02-19T15:48:13.934Z,10.02
2023-02-19T15:53:23.857Z,6.82
2023-02-19T15:58:42.986Z,12.05
2023-02-19T16:03:46.374Z,6.45
2023-02-19T16:09:02.431Z,10.48
2023-02-19T16:14:23.930Z,11.90
2023-02-19T16:19:33.743Z,14.07
2023-02-19T16:24:45.531Z,11.43
2023-02-19T16:29:51.925Z,12.80
2023-02-19T16:34:54.975Z,12.88
2023-02-19T16:40:11.463Z,9.38
2023-02-19T16:45:16.364Z,20.83
2023-02-19T16:50:23.370Z,20.38
2023-02-19T17:00:34.673Z,14.50
2023-02-19T17:05:39.085Z,14.48
2023-02-19T17:10:42.182Z,14.00
2023-02-19T17:15:45.195Z,18.50
2023-02-19T17:20:55.724Z,18.63
2023-02-19T17:25:58.830Z,15.73
2023-02-19T17:31:01.942Z,21.42
2023-02-19T17:36:05.386Z,16.02
2023-02-19T17:41:08.574Z,21.83
2023-02-19T17:46:26.053Z,13.50
2023-02-19T17:51:29.080Z,16.70
2023-02-19T17:56:32.129Z,23.17
2023-02-19T18:01:35.257Z,12.38
2023-02-19T18:06:38.403Z,20.38
2023-02-19T18:11:46.352Z,15.98
2023-02-19T18:16:50.697Z,17.92
2023-02-19T18:21:53.908Z,20.08
2023-02-19T18:26:56.990Z,14.80
2023-02-19T18:32:00.160Z,16.25
2023-02-19T18:37:03.533Z,15.63
2023-02-19T18:42:06.624Z,20.52
2023-02-19T18:47:11.765Z,19.23
2023-02-19T18:52:16.452Z,14.70
2023-02-19T18:57:21.022Z,16.15
2023-02-19T19:02:24.243Z,20.40
2023-02-19T19:07:27.359Z,20.23
2023-02-19T19:12:30.610Z,17.92
2023-02-19T19:17:33.672Z,22.88
2023-02-19T19:22:37.471Z,14.55
2023-02-19T19:27:40.433Z,18.50
2023-02-19T19:32:43.465Z,15.85
2023-02-19T19:37:46.504Z,18.02
2023-02-19T19:42:52.660Z,16.20
2023-02-19T19:47:55.777Z,15.18
2023-02-19T19:52:58.819Z,20.90
2023-02-19T19:58:01.803Z,20.48
2023-02-19T20:03:05.845Z,17.05
2023-02-19T20:08:08.947Z,23.17
2023-02-19T20:13:12.150Z,14.00
2023-02-19T20:18:15.180Z,22.75
2023-02-19T20:23:18.213Z,16.50
2023-02-19T20:28:21.251Z,16.42
2023-02-19T20:33:24.265Z,17.45
2023-02-19T20:38:27.285Z,20.25
2023-02-19T20:43:30.343Z,14.95
2023-02-19T20:48:33.368Z,20.75
2023-02-19T20:53:38.115Z,23.75
2023-02-19T20:58:43.910Z,23.27
2023-02-19T21:03:46.901Z,16.30
2023-02-19T21:08:49.853Z,16.30
2023-02-19T21:13:53.034Z,13.95
2023-02-19T21:18:56.636Z,20.33
2023-02-19T21:24:00.999Z,14.75
2023-02-19T21:29:08.227Z,22.48
2023-02-19T21:34:14.437Z,16.90
2023-02-19T21:39:20.111Z,27.30
2023-02-19T21:44:23.227Z,18.42
2023-02-19T21:49:26.350Z,20.15
2023-02-19T21:54:29.495Z,17.63
2023-02-19T21:59:32.529Z,17.85
2023-02-19T22:04:35.510Z,20.88
2023-02-19T22:09:39.208Z,19.45
2023-02-19T22:14:43.896Z,19.20
2023-02-19T22:19:47.051Z,16.40
2023-02-19T22:24:50.097Z,23.23
2023-02-19T22:29:53.072Z,23.90
2023-02-19T22:34:56.046Z,29.05
2023-02-19T22:39:59.095Z,19.73
2023-02-19T22:45:02.196Z,22.42
2023-02-19T22:50:16.299Z,18.13
2023-02-19T22:55:19.417Z,23.95
2023-02-19T23:00:22.606Z,26.10
2023-02-19T23:05:25.815Z,18.45
2023-02-19T23:10:29.032Z,16.08
2023-02-19T23:15:32.065Z,23.35
2023-02-19T23:20:35.745Z,22.58
2023-02-19T23:25:38.860Z,21.45
2023-02-19T23:30:41.936Z,22.42
2023-02-19T23:35:45.231Z,25.10
2023-02-19T23:40:48.374Z,23.90
2023-02-19T23:45:51.523Z,23.02
2023-02-19T23:50:54.615Z,26.15
2023-02-19T23:55:57.685Z,27.63
